createdAt,value
2023-01-17T00:02:26.352Z,97687.28
2023-01-17T00:05:13.621Z,97686.31
2023-01-17T00:08:00.294Z,97681.97
2023-01-17T00:10:29.254Z,97680.22
2023-01-17T00:13:00.251Z,97682.44
2023-01-17T00:15:30.749Z,97672.78
2023-01-17T00:17:59.356Z,97671.69
2023-01-17T00:20:48.969Z,97677.94
2023-01-17T00:23:41.809Z,97677.66
2023-01-17T00:26:21.278Z,97684.09
2023-01-17T00:28:50.031Z,97673.81
2023-01-17T00:31:18.271Z,97679.91
2023-01-17T00:33:46.530Z,97664.00
2023-01-17T00:36:15.047Z,97666.75
2023-01-17T00:38:43.258Z,97656.81
2023-01-17T00:41:13.798Z,97662.44
2023-01-17T00:44:01.274Z,97662.44
2023-01-17T00:46:48.426Z,97663.41
2023-01-17T00:49:35.569Z,97664.72
2023-01-17T00:52:22.503Z,97665.84
2023-01-17T00:55:09.841Z,97658.44
2023-01-17T00:57:56.444Z,97654.88
2023-01-17T01:00:43.404Z,97664.84
2023-01-17T01:03:31.061Z,97653.28
2023-01-17T01:06:18.351Z,97654.28
2023-01-17T01:09:05.434Z,97655.72
2023-01-17T01:11:52.800Z,97647.69
2023-01-17T01:14:39.559Z,97653.00
2023-01-17T01:17:26.438Z,97653.00
2023-01-17T01:20:13.332Z,97654.59
2023-01-17T01:23:00.325Z,97647.53
2023-01-17T01:25:47.289Z,97649.94
2023-01-17T01:28:34.779Z,97650.59
2023-01-17T01:31:22.119Z,97655.56
2023-01-17T01:33:51.778Z,97641.72
2023-01-17T01:36:20.173Z,97666.19
2023-01-17T01:38:50.334Z,97668.63
2023-01-17T01:41:19.163Z,97680.34
2023-01-17T01:43:50.138Z,97670.03
2023-01-17T01:46:39.411Z,97680.34
2023-01-17T01:49:24.907Z,97674.22
2023-01-17T01:52:00.819Z,97667.31
2023-01-17T01:54:37.440Z,97664.75
2023-01-17T01:57:09.719Z,97660.41
2023-01-17T01:59:43.212Z,97670.03
2023-01-17T02:02:12.170Z,97666.50
2023-01-17T02:04:40.646Z,97665.38
2023-01-17T02:07:17.663Z,97661.34
2023-01-17T02:09:46.200Z,97645.91
2023-01-17T02:12:14.635Z,97650.09
2023-01-17T02:14:43.167Z,97631.28
2023-01-17T02:17:53.495Z,97633.69
2023-01-17T02:20:57.207Z,97606.00
2023-01-17T02:23:50.748Z,97609.25
2023-01-17T02:26:48.828Z,97607.97
2023-01-17T02:29:42.169Z,97620.84
2023-01-17T02:32:10.542Z,97615.03
2023-01-17T02:35:03.478Z,97608.56
2023-01-17T02:37:51.645Z,97615.66
2023-01-17T02:40:39.994Z,97613.88
2023-01-17T02:43:15.103Z,97605.53
2023-01-17T02:45:43.740Z,97601.69
2023-01-17T02:48:14.844Z,97605.22
2023-01-17T02:50:59.275Z,97615.00
2023-01-17T02:53:36.762Z,97590.53
2023-01-17T02:56:42.280Z,97598.28
2023-01-17T02:59:19.602Z,97597.31
2023-01-17T03:02:01.208Z,97587.97
2023-01-17T03:04:48.304Z,97579.91
2023-01-17T03:07:20.766Z,97588.62
2023-01-17T03:09:53.658Z,97569.94
2023-01-17T03:12:21.989Z,97569.78
2023-01-17T03:14:50.571Z,97555.16
2023-01-17T03:17:18.936Z,97555.97
2023-01-17T03:19:47.139Z,97546.31
2023-01-17T03:22:15.629Z,97545.66
2023-01-17T03:24:43.664Z,97541.97
2023-01-17T03:27:12.081Z,97542.59
2023-01-17T03:29:40.542Z,97533.13
2023-01-17T03:32:09.163Z,97525.06
2023-01-17T03:34:37.187Z,97523.44
2023-01-17T03:37:05.892Z,97523.44
2023-01-17T03:39:33.965Z,97517.84
2023-01-17T03:42:02.195Z,97508.97
2023-01-17T03:44:30.765Z,97514.94
2023-01-17T03:46:58.870Z,97519.91
2023-01-17T03:49:27.181Z,97515.25
2023-01-17T03:51:55.834Z,97517.81
2023-01-17T03:54:23.885Z,97508.16
2023-01-17T03:56:52.014Z,97501.25
2023-01-17T03:59:20.361Z,97503.31
2023-01-17T04:01:48.602Z,97498.50
2023-01-17T04:04:17.221Z,97496.41
2023-01-17T04:06:45.570Z,97500.44
2023-01-17T04:09:13.674Z,97503.66
2023-01-17T04:11:42.191Z,97495.09
2023-01-17T04:14:10.484Z,97498.34
2023-01-17T04:16:38.664Z,97504.28
2023-01-17T04:19:09.193Z,97498.97
2023-01-17T04:21:37.384Z,97489.00
2023-01-17T04:24:06.133Z,97494.94
2023-01-17T04:26:34.613Z,97495.75
2023-01-17T04:29:03.485Z,97494.31
2023-01-17T04:31:33.106Z,97495.09
2023-01-17T04:34:01.762Z,97498.34
2023-01-17T04:36:29.960Z,97493.19
2023-01-17T04:38:57.992Z,97480.16
2023-01-17T04:41:26.894Z,97486.09
2023-01-17T04:43:55.218Z,97504.12
2023-01-17T04:46:23.460Z,97492.06
2023-01-17T04:48:51.997Z,97487.88
2023-01-17T04:51:20.721Z,97485.94
2023-01-17T04:53:48.829Z,97491.25
2023-01-17T04:56:17.500Z,97488.03
2023-01-17T04:58:45.961Z,97492.87
2023-01-17T05:01:15.006Z,97489.66
2023-01-17T05:03:43.675Z,97491.75
2023-01-17T05:06:11.846Z,97484.97
2023-01-17T05:08:40.051Z,97485.16
2023-01-17T05:11:08.950Z,97500.44
2023-01-17T05:13:37.119Z,97502.22
2023-01-17T05:16:05.578Z,97485.94
2023-01-17T05:18:34.127Z,97485.94
2023-01-17T05:21:05.298Z,97486.94
2023-01-17T05:23:33.881Z,97487.56
2023-01-17T05:26:02.043Z,97480.66
2023-01-17T05:28:30.387Z,97476.91
2023-01-17T05:30:58.850Z,97484.81
2023-01-17T05:33:27.100Z,97474.34
2023-01-17T05:35:55.176Z,97487.88
2023-01-17T05:38:23.760Z,97486.25
2023-01-17T05:40:51.869Z,97487.88
2023-01-17T05:43:22.064Z,97485.31
2023-01-17T05:45:50.673Z,97490.44
2023-01-17T05:48:18.901Z,97496.38
2023-01-17T05:50:47.139Z,97494.47
2023-01-17T05:53:16.857Z,97500.91
2023-01-17T05:55:45.301Z,97483.31
2023-01-17T05:58:19.153Z,97493.78
2023-01-17T06:00:48.767Z,97501.50
2023-01-17T06:03:17.804Z,97502.47
2023-01-17T06:05:46.928Z,97508.28
2023-01-17T06:08:15.988Z,97517.44
2023-01-17T06:10:44.478Z,97530.50
2023-01-17T06:13:15.289Z,97525.81
2023-01-17T06:15:43.641Z,97524.37
2023-01-17T06:18:14.334Z,97521.16
2023-01-17T06:20:43.299Z,97534.06
2023-01-17T06:23:13.895Z,97520.84
2023-01-17T06:25:45.352Z,97535.19
2023-01-17T06:28:19.488Z,97539.19
2023-01-17T06:30:48.156Z,97525.22
2023-01-17T06:33:16.792Z,97543.25
2023-01-17T06:35:52.345Z,97538.41
2023-01-17T06:38:21.114Z,97532.13
2023-01-17T06:40:49.367Z,97538.41
2023-01-17T06:43:17.405Z,97536.16
2023-01-17T06:45:46.054Z,97541.47
2023-01-17T06:48:14.260Z,97541.78
2023-01-17T06:50:42.434Z,97554.19
2023-01-17T06:53:11.142Z,97550.31
2023-01-17T06:55:40.463Z,97553.87
2023-01-17T06:58:09.529Z,97563.34
2023-01-17T07:00:40.552Z,97574.66
2023-01-17T07:03:22.099Z,97588.47
2023-01-17T07:05:51.956Z,97592.16
2023-01-17T07:08:20.661Z,97589.75
2023-01-17T07:10:49.340Z,97604.72
2023-01-17T07:13:17.676Z,97602.63
2023-01-17T07:15:46.023Z,97611.47
2023-01-17T07:18:14.768Z,97618.22
2023-01-17T07:20:43.969Z,97624.47
2023-01-17T07:23:12.576Z,97628.50
2023-01-17T07:25:40.649Z,97628.66
2023-01-17T07:28:09.610Z,97634.59
2023-01-17T07:30:37.829Z,97631.34
2023-01-17T07:33:05.889Z,97643.75
2023-01-17T07:35:34.800Z,97642.78
2023-01-17T07:38:03.711Z,97648.09
2023-01-17T07:40:36.593Z,97652.22
2023-01-17T07:43:14.875Z,97653.03
2023-01-17T07:45:53.517Z,97657.69
2023-01-17T07:48:24.529Z,97660.72
2023-01-17T07:50:54.464Z,97656.88
2023-01-17T07:53:25.358Z,97661.41
2023-01-17T07:55:54.235Z,97669.94
2023-01-17T07:58:22.864Z,97687.94
2023-01-17T08:00:51.241Z,97701.91
2023-01-17T08:03:20.347Z,97697.56
2023-01-17T08:05:56.330Z,97704.09
2023-01-17T08:08:28.361Z,97706.94
2023-01-17T08:10:56.533Z,97722.66
2023-01-17T08:13:25.050Z,97735.06
2023-01-17T08:15:54.576Z,97733.19
2023-01-17T08:18:22.699Z,97739.72
2023-01-17T08:20:51.089Z,97731.78
2023-01-17T08:23:19.198Z,97719.09
2023-01-17T08:25:47.308Z,97730.19
2023-01-17T08:28:16.059Z,97753.34
2023-01-17T08:30:44.513Z,97752.31
2023-01-17T08:33:12.539Z,97768.91
2023-01-17T08:35:50.576Z,97746.31
2023-01-17T08:38:18.791Z,97752.41
2023-01-17T08:40:47.415Z,97762.09
2023-01-17T08:43:15.709Z,97752.97
2023-01-17T08:45:48.377Z,97750.94
2023-01-17T08:48:17.053Z,97763.47
2023-01-17T08:50:45.179Z,97760.50
2023-01-17T08:53:13.369Z,97761.78
2023-01-17T08:55:42.083Z,97751.28
2023-01-17T08:58:10.123Z,97768.66
2023-01-17T09:00:38.247Z,97766.38
2023-01-17T09:03:10.560Z,97770.06
2023-01-17T09:05:38.589Z,97759.13
2023-01-17T09:08:07.092Z,97748.03
2023-01-17T09:10:35.431Z,97763.75
2023-01-17T09:13:06.931Z,97759.25
2023-01-17T09:15:35.449Z,97780.53
2023-01-17T09:18:03.646Z,97785.00
2023-01-17T09:20:31.887Z,97779.19
2023-01-17T09:23:02.932Z,97776.41
2023-01-17T09:25:31.202Z,97788.91
2023-01-17T09:27:59.710Z,97785.66
2023-01-17T09:30:27.846Z,97795.50
2023-01-17T09:32:56.032Z,97793.25
2023-01-17T09:35:24.436Z,97798.59
2023-01-17T09:37:52.654Z,97808.03
2023-01-17T09:40:24.446Z,97811.09
2023-01-17T09:42:58.174Z,97808.88
2023-01-17T09:45:30.289Z,97815.75
2023-01-17T09:48:00.187Z,97817.69
2023-01-17T09:50:33.424Z,97835.16
2023-01-17T09:53:07.552Z,97833.62
2023-01-17T09:55:43.738Z,97839.00
2023-01-17T09:58:21.835Z,97851.19
2023-01-17T10:01:03.986Z,97849.66
2023-01-17T10:03:57.452Z,97850.38
2023-01-17T10:06:43.846Z,97843.41
2023-01-17T10:09:34.852Z,97839.66
2023-01-17T10:12:37.169Z,97837.41
2023-01-17T10:15:43.606Z,97838.25
2023-01-17T10:18:30.016Z,97844.53
2023-01-17T10:21:01.641Z,97847.81
2023-01-17T10:23:50.678Z,97855.22
2023-01-17T10:26:24.395Z,97867.31
2023-01-17T10:28:56.768Z,97851.72
2023-01-17T10:31:27.413Z,97864.97
2023-01-17T10:34:22.739Z,97868.38
2023-01-17T10:37:14.516Z,97863.31
2023-01-17T10:39:49.763Z,97857.31
2023-01-17T10:42:32.651Z,97849.00
2023-01-17T10:45:30.660Z,97840.38
2023-01-17T10:48:15.830Z,97840.62
2023-01-17T10:51:12.897Z,97845.03
2023-01-17T10:54:14.568Z,97826.94
2023-01-17T10:56:42.933Z,97816.91
2023-01-17T10:59:25.671Z,97810.56
2023-01-17T11:01:54.405Z,97809.28
2023-01-17T11:04:36.642Z,97802.31
2023-01-17T11:07:17.002Z,97796.97
2023-01-17T11:09:52.179Z,97791.63
2023-01-17T11:12:40.835Z,97793.53
2023-01-17T11:15:09.167Z,97785.44
2023-01-17T11:17:45.383Z,97797.31
2023-01-17T11:20:32.754Z,97783.47
2023-01-17T11:23:23.293Z,97790.72
2023-01-17T11:26:04.788Z,97790.47
2023-01-17T11:28:36.018Z,97791.88
2023-01-17T11:31:07.630Z,97786.28
2023-01-17T11:34:02.622Z,97784.09
2023-01-17T11:36:31.884Z,97788.91
2023-01-17T11:39:04.679Z,97778.62
2023-01-17T11:41:38.404Z,97772.56
2023-01-17T11:44:23.946Z,97778.50
2023-01-17T11:47:13.521Z,97768.59
2023-01-17T11:49:46.629Z,97767.28
2023-01-17T11:52:32.355Z,97757.44
2023-01-17T11:55:00.598Z,97755.75
2023-01-17T11:57:35.103Z,97744.91
2023-01-17T12:00:08.929Z,97743.75
2023-01-17T12:02:58.266Z,97740.22
2023-01-17T12:05:56.331Z,97750.28
2023-01-17T12:08:56.626Z,97744.81
2023-01-17T12:12:04.527Z,97762.47
2023-01-17T12:14:48.898Z,97771.50
2023-01-17T12:17:33.782Z,97784.88
2023-01-17T12:20:10.243Z,97799.19
2023-01-17T12:23:00.492Z,97802.50
2023-01-17T12:25:55.205Z,97795.03
2023-01-17T12:28:47.944Z,97791.50
2023-01-17T12:32:03.877Z,97793.41
2023-01-17T12:34:39.688Z,97790.91
2023-01-17T12:37:19.870Z,97799.84
2023-01-17T12:40:05.265Z,97806.09
2023-01-17T12:42:43.219Z,97800.81
2023-01-17T12:45:22.904Z,97801.16
2023-01-17T12:47:58.780Z,97796.00
2023-01-17T12:50:42.844Z,97801.53
2023-01-17T12:53:39.259Z,97785.34
2023-01-17T12:56:17.019Z,97800.72
2023-01-17T12:58:50.402Z,97788.66
2023-01-17T13:01:27.762Z,97802.12
2023-01-17T13:04:11.420Z,97807.84
2023-01-17T13:06:51.024Z,97801.88
2023-01-17T13:09:22.873Z,97807.31
2023-01-17T13:12:00.676Z,97801.03
2023-01-17T13:14:29.033Z,97792.53
2023-01-17T13:17:00.488Z,97794.06
2023-01-17T13:19:53.732Z,97787.09
2023-01-17T13:22:24.223Z,97791.81
2023-01-17T13:25:07.098Z,97792.09
2023-01-17T13:28:11.049Z,97784.84
2023-01-17T13:30:58.783Z,97787.81
2023-01-17T13:33:36.291Z,97790.03
2023-01-17T13:36:30.024Z,97794.59
2023-01-17T13:39:18.209Z,97803.69
2023-01-17T13:42:11.651Z,97811.84
2023-01-17T13:44:40.125Z,97813.16
2023-01-17T13:47:11.346Z,97818.81
2023-01-17T13:49:51.366Z,97809.53
2023-01-17T13:52:19.398Z,97791.44
2023-01-17T13:54:53.760Z,97789.03
2023-01-17T13:57:40.033Z,97785.00
2023-01-17T14:00:22.226Z,97781.31
2023-01-17T14:02:52.653Z,97775.34
2023-01-17T14:05:23.390Z,97785.22
2023-01-17T14:08:02.553Z,97769.59
2023-01-17T14:10:34.318Z,97769.59
2023-01-17T14:13:04.718Z,97747.16
2023-01-17T14:15:35.560Z,97736.94
2023-01-17T14:18:05.868Z,97732.47
2023-01-17T14:20:40.431Z,97724.25
2023-01-17T14:23:32.341Z,97719.25
2023-01-17T14:26:32.756Z,97718.81
2023-01-17T14:29:39.554Z,97710.59
2023-01-17T14:32:12.211Z,97706.94
2023-01-17T14:34:40.749Z,97697.09
2023-01-17T14:37:27.472Z,97686.13
2023-01-17T14:39:56.101Z,97684.56
2023-01-17T14:42:27.898Z,97693.81
2023-01-17T14:45:01.327Z,97685.59
2023-01-17T14:47:35.802Z,97670.16
2023-01-17T14:50:26.491Z,97669.50
2023-01-17T14:53:30.612Z,97664.69
2023-01-17T14:56:03.008Z,97671.63
2023-01-17T14:58:33.650Z,97673.12
2023-01-17T15:01:19.387Z,97671.66
2023-01-17T15:03:48.987Z,97661.34
2023-01-17T15:06:20.971Z,97665.53
2023-01-17T15:08:50.108Z,97664.91
2023-01-17T15:11:24.842Z,97667.16
2023-01-17T15:13:57.519Z,97661.87
2023-01-17T15:16:27.786Z,97661.56
2023-01-17T15:18:57.438Z,97657.66
2023-01-17T15:21:33.303Z,97660.94
2023-01-17T15:24:07.189Z,97661.91
2023-01-17T15:26:39.463Z,97660.28
2023-01-17T15:29:15.832Z,97657.22
2023-01-17T15:31:50.500Z,97648.47
2023-01-17T15:34:32.190Z,97658.19
2023-01-17T15:37:03.994Z,97655.47
2023-01-17T15:39:35.926Z,97662.63
2023-01-17T15:42:22.722Z,97662.63
2023-01-17T15:44:56.175Z,97650.66
2023-01-17T15:47:38.716Z,97658.75
2023-01-17T15:50:26.717Z,97661.97
2023-01-17T15:53:17.978Z,97645.50
2023-01-17T15:55:48.064Z,97647.44
2023-01-17T15:58:28.710Z,97638.72
2023-01-17T16:00:57.235Z,97633.03
2023-01-17T16:03:29.623Z,97632.94
2023-01-17T16:06:00.555Z,97624.84
2023-01-17T16:08:39.269Z,97630.34
2023-01-17T16:11:10.798Z,97634.81
2023-01-17T16:13:42.086Z,97627.38
2023-01-17T16:16:22.284Z,97625.13
2023-01-17T16:18:59.099Z,97620.03
2023-01-17T16:21:31.665Z,97618.56
2023-01-17T16:24:00.782Z,97621.59
2023-01-17T16:26:29.489Z,97616.44
2023-01-17T16:28:57.656Z,97610.19
2023-01-17T16:31:26.589Z,97622.44
2023-01-17T16:33:54.992Z,97611.00
2023-01-17T16:36:23.378Z,97616.22
2023-01-17T16:38:52.487Z,97594.28
2023-01-17T16:41:21.112Z,97596.06
2023-01-17T16:44:01.540Z,97594.75
2023-01-17T16:46:30.408Z,97586.38
2023-01-17T16:49:01.724Z,97590.78
2023-01-17T16:51:30.316Z,97594.91
2023-01-17T16:53:58.533Z,97582.34
2023-01-17T16:56:27.084Z,97586.56
2023-01-17T16:58:56.493Z,97561.56
2023-01-17T17:01:25.644Z,97571.34
2023-01-17T17:03:54.035Z,97573.78
2023-01-17T17:06:22.532Z,97567.63
2023-01-17T17:08:51.630Z,97564.91
2023-01-17T17:11:23.153Z,97576.19
2023-01-17T17:13:52.024Z,97574.78
2023-01-17T17:16:30.127Z,97576.44
2023-01-17T17:19:04.941Z,97572.88
2023-01-17T17:21:35.172Z,97568.06
2023-01-17T17:24:04.536Z,97562.16
2023-01-17T17:26:36.697Z,97563.78
2023-01-17T17:29:06.802Z,97549.44
2023-01-17T17:31:35.200Z,97547.19
2023-01-17T17:34:04.989Z,97540.31
2023-01-17T17:36:34.480Z,97541.94
2023-01-17T17:39:04.799Z,97535.72
2023-01-17T17:41:35.333Z,97523.44
2023-01-17T17:44:04.729Z,97527.81
2023-01-17T17:46:33.887Z,97518.47
2023-01-17T17:49:02.960Z,97508.69
2023-01-17T17:51:34.578Z,97505.44
2023-01-17T17:54:11.610Z,97507.69
2023-01-17T17:56:41.004Z,97508.53
2023-01-17T17:59:09.891Z,97496.13
2023-01-17T18:01:38.938Z,97497.25
2023-01-17T18:04:08.267Z,97486.00
2023-01-17T18:06:38.593Z,97470.22
2023-01-17T18:09:08.444Z,97473.62
2023-01-17T18:11:39.356Z,97460.56
2023-01-17T18:14:10.616Z,97445.72
2023-01-17T18:16:42.787Z,97438.19
2023-01-17T18:19:16.762Z,97432.75
2023-01-17T18:21:45.381Z,97430.44
2023-01-17T18:24:15.979Z,97428.88
2023-01-17T18:26:48.507Z,97436.75
2023-01-17T18:29:21.907Z,97421.03
2023-01-17T18:31:52.075Z,97424.03
2023-01-17T18:34:28.532Z,97406.66
2023-01-17T18:36:58.151Z,97399.28
2023-01-17T18:39:29.233Z,97388.50
2023-01-17T18:41:58.502Z,97391.06
2023-01-17T18:44:27.753Z,97390.09
2023-01-17T18:47:02.029Z,97385.31
2023-01-17T18:49:33.176Z,97361.81
2023-01-17T18:52:01.610Z,97359.09
2023-01-17T18:54:30.014Z,97361.66
2023-01-17T18:56:58.978Z,97360.06
2023-01-17T18:59:27.537Z,97357.31
2023-01-17T19:01:55.980Z,97349.75
2023-01-17T19:04:25.054Z,97358.56
2023-01-17T19:06:53.757Z,97370.00
2023-01-17T19:09:22.365Z,97360.88
2023-01-17T19:11:51.544Z,97354.72
2023-01-17T19:14:20.273Z,97363.91
2023-01-17T19:16:48.406Z,97352.50
2023-01-17T19:19:17.320Z,97355.25
2023-01-17T19:21:46.280Z,97354.47
2023-01-17T19:24:14.807Z,97344.84
2023-01-17T19:26:43.949Z,97335.03
2023-01-17T19:29:12.443Z,97338.25
2023-01-17T19:31:43.170Z,97331.47
2023-01-17T19:34:19.093Z,97307.38
2023-01-17T19:36:47.674Z,97325.53
2023-01-17T19:39:16.220Z,97322.81
2023-01-17T19:41:46.216Z,97316.88
2023-01-17T19:44:15.195Z,97313.81
2023-01-17T19:46:46.177Z,97289.56
2023-01-17T19:49:19.761Z,97292.47
2023-01-17T19:51:49.577Z,97277.84
2023-01-17T19:54:18.064Z,97257.94
2023-01-17T19:56:46.466Z,97245.53
2023-01-17T19:59:15.351Z,97249.13
2023-01-17T20:01:43.663Z,97243.47
2023-01-17T20:04:12.938Z,97222.75
2023-01-17T20:06:41.150Z,97219.06
2023-01-17T20:09:10.299Z,97211.19
2023-01-17T20:11:42.253Z,97203.47
2023-01-17T20:14:14.899Z,97198.03
2023-01-17T20:16:47.662Z,97187.00
2023-01-17T20:19:16.423Z,97192.94
2023-01-17T20:21:45.033Z,97187.66
2023-01-17T20:24:13.973Z,97176.41
2023-01-17T20:26:44.017Z,97186.25
2023-01-17T20:29:16.969Z,97192.84
2023-01-17T20:31:46.230Z,97197.19
2023-01-17T20:34:18.798Z,97184.03
2023-01-17T20:36:47.303Z,97191.88
2023-01-17T20:39:16.193Z,97186.44
2023-01-17T20:41:49.020Z,97175.84
2023-01-17T20:44:19.421Z,97163.94
2023-01-17T20:46:48.240Z,97174.41
2023-01-17T20:49:19.450Z,97174.56
2023-01-17T20:51:48.438Z,97160.28
2023-01-17T20:54:21.190Z,97158.84
2023-01-17T20:56:50.000Z,97147.78
2023-01-17T20:59:22.342Z,97140.88
2023-01-17T21:01:51.775Z,97138.28
2023-01-17T21:04:26.239Z,97122.88
2023-01-17T21:06:55.303Z,97108.59
2023-01-17T21:09:23.493Z,97112.59
2023-01-17T21:11:51.966Z,97110.19
2023-01-17T21:14:21.860Z,97105.84
2023-01-17T21:16:50.425Z,97092.53
2023-01-17T21:19:20.615Z,97086.44
2023-01-17T21:21:50.198Z,97090.41
2023-01-17T21:24:19.662Z,97080.47
2023-01-17T21:26:49.721Z,97090.28
2023-01-17T21:29:18.317Z,97080.00
2023-01-17T21:31:46.805Z,97090.37
2023-01-17T21:34:15.314Z,97069.03
2023-01-17T21:36:43.799Z,97060.97
2023-01-17T21:39:19.163Z,97049.56
2023-01-17T21:41:50.738Z,97049.88
2023-01-17T21:44:21.632Z,97036.69
2023-01-17T21:46:56.265Z,97023.50
2023-01-17T21:49:24.838Z,97006.97
2023-01-17T21:51:54.222Z,97016.44
2023-01-17T21:54:44.410Z,97016.91
2023-01-17T21:57:41.105Z,97021.59
2023-01-17T22:00:14.588Z,97019.03
2023-01-17T22:02:45.822Z,97035.09
2023-01-17T22:05:16.434Z,97031.56
2023-01-17T22:08:05.640Z,97029.91
2023-01-17T22:10:44.556Z,97023.31
2023-01-17T22:13:14.309Z,97015.94
2023-01-17T22:15:43.069Z,97017.94
2023-01-17T22:18:13.106Z,96996.88
2023-01-17T22:20:42.659Z,97013.09
2023-01-17T22:23:11.774Z,97000.69
2023-01-17T22:25:40.249Z,96986.53
2023-01-17T22:28:08.923Z,96979.47
2023-01-17T22:30:37.375Z,96981.38
2023-01-17T22:33:05.766Z,96973.06
2023-01-17T22:35:34.129Z,96975.16
2023-01-17T22:38:02.235Z,96974.81
2023-01-17T22:40:32.931Z,96995.25
2023-01-17T22:43:01.434Z,96993.28
2023-01-17T22:45:29.640Z,96986.69
2023-01-17T22:47:57.874Z,96986.69
2023-01-17T22:50:26.580Z,97001.97
2023-01-17T22:52:54.987Z,97004.19
2023-01-17T22:55:23.168Z,97016.72
2023-01-17T22:57:51.827Z,97011.84
2023-01-17T23:00:20.081Z,97009.94
2023-01-17T23:02:48.181Z,96998.16
2023-01-17T23:05:16.740Z,96990.91
2023-01-17T23:07:49.984Z,96994.81
2023-01-17T23:10:38.694Z,96994.31
2023-01-17T23:13:10.446Z,96986.91
2023-01-17T23:15:57.424Z,96984.50
2023-01-17T23:18:44.505Z,96996.84
2023-01-17T23:21:13.057Z,96995.75
2023-01-17T23:23:41.173Z,96994.94
2023-01-17T23:26:09.457Z,97008.41
2023-01-17T23:28:38.007Z,97001.75
2023-01-17T23:31:06.560Z,96992.13
2023-01-17T23:33:34.902Z,96996.75
2023-01-17T23:36:03.404Z,97004.50
2023-01-17T23:38:33.926Z,97009.19
2023-01-17T23:41:28.180Z,96990.87
2023-01-17T23:43:58.336Z,97004.69
2023-01-17T23:46:26.770Z,97021.87
2023-01-17T23:48:55.360Z,97008.53
2023-01-17T23:51:23.840Z,97009.12
2023-01-17T23:53:57.567Z,97007.88
2023-01-17T23:56:26.122Z,97004.34
2023-01-17T23:58:54.333Z,97015.88
